Aérodrome :
LOGIN :

S'inscrire | Disclaimer

   EN    FR    IT 

 










Légende :    VFR   VFR Marginal   IFR   IFR Intensif   IFR Très Intensif
Visi : 
Plafond : 
>= 8 km
>= 3000ft
5 à 8 km
1000 à 3000 ft
1500m à 5 km
500 à 1000 ft
800 à 1500m
200 à 500 ft
< 800m
< 200 ft
Symboles :   Orages  Brouillard  Fortes neiges  Fortes précipitations  Vent > 20 kt
SIGMETs :   Divers  Orages  Givrage  Turbulence  Onde Orograph.  Cendres Volcan.






- Altitude de l'aérodrome : 2313 ft
- Code IATA : OHD


LWOH - Ohrid

DERNIER METAR :
  • 130700Z 17007KT 9999 SCT020 BKN040 07/03 Q1002

METARs EXPIRÉS :
  • 130630Z 00000KT 9999 SCT020 BKN040 05/03 Q1002
  • 130600Z 29001KT 9999 SCT020 OVC040 05/02 Q1002
  • 130530Z 20002KT 9999 SCT020 OVC040 06/03 Q1002
  • 130500Z 18006KT 9999 SCT020 OVC040 07/04 Q1002
  • 130430Z 16011KT 9999 SCT020 OVC040 07/05 Q1002

TAF TAF LWOH
Valide du 13 à 06h jusqu'au 14 à 06h UTC


130530Z 1306/1406 18010KT 9999 SCT020 BKN040 BKN080
TEMPO 1306/1312 6000 -RA BKN015 OVC033
TEMPO 1315/1324 14020KT
BECMG 1322/1324 5000 RA BKN015 OVC033



MET'MAP, la Météo Aéronautique d'un coup d'oeil ! - Copyright ORBIFLY Décembre 2007 - Disclaimer

ORBIFLY MET'MAP TEAM :

Programmation & Développement : Alexandra Zaïnal
Sur une idée originale de : Baudouin d'Aumeries
Assistance à la programmation : Marc-Olivier Méhu
Soutien technique & logistique : Manuel Goepfert

Contact : metmap@orbifly.com




SOURCES & CREDITS :

   NOAA